Flight Track Log - Related Links

Times and Time Zones

All times are in EDT time to prevent confusion due to time zone crossing. See the AAL963 flight status page for this flight to view local times or setup timezone preferences in your user account.

Time Position Orientation Groundspeed Altitude Reporting Facility
EDT Latitude Longitude Course Direction KTS MPH feet Rate Location/Type
Tue 21:42:32 32.8480 -97.0550 189° South 183 211 2,300  Level FlightAware ADS-B
Tue 21:42:44 32.8370 -97.0580 193° South 193 222 2,500 652 Climbing FlightAware ADS-B
Tue 21:43:18 32.8040 -97.0640 189° South 229 264 2,800 828 Climbing FlightAware ADS-B
Tue 21:43:42 32.7770 -97.0690 189° South 243 280 3,300 1,418 Climbing FlightAware ADS-B
Tue 21:44:13 32.7430 -97.0750 188° South 253 291 4,100 1,615 Climbing FlightAware ADS-B
Tue 21:44:34 32.7180 -97.0790 188° South 260 299 4,700 1,672 Climbing FlightAware ADS-B
Tue 21:45:14 32.6710 -97.0760 177° South 272 313 5,800 1,714 Climbing FlightAware ADS-B
Tue 21:45:44 32.6340 -97.0530 152° Southeast 283 326 6,700 1,684 Climbing FlightAware ADS-B
Tue 21:46:11 32.6040 -97.0340 152° Southeast 288 331 7,400 1,714 Climbing FlightAware ADS-B
Tue 21:46:40 32.5690 -97.0090 149° Southeast 293 337 8,300 1,756 Climbing FlightAware ADS-B
Tue 21:46:52 32.5550 -97.0000 152° Southeast 296 341 8,600 1,500 Climbing FlightAware ADS-B
Tue 21:47:20 32.5210 -96.9770 150° Southeast 301 346 9,300 1,583 Climbing FlightAware ADS-B
Tue 21:48:04 32.4680 -96.9400 149° Southeast 311 358 10,500 940 Climbing FlightAware ADS-B
Tue 21:48:43 32.4160 -96.9050 150° Southeast 351 404 10,600 615 Climbing FlightAware ADS-B
Tue 21:49:22 32.3580 -96.8650 150° Southeast 375 432 11,300 1,091 Climbing FlightAware ADS-B
Tue 21:50:00 32.2990 -96.8260 151° Southeast 391 450 12,000 1,244 Climbing FlightAware ADS-B
Tue 21:50:44 32.2270 -96.7920 158° South 404 465 13,000 1,595 Climbing FlightAware ADS-B
Tue 21:51:19 32.1640 -96.7690 163° South 408 470 14,100 1,821 Climbing FlightAware ADS-B
Tue 21:51:40 32.1226 -96.7536 163° South 412 474 14,700 1,698 Climbing FlightAware ADS-B
Tue 21:52:12 32.0631 -96.7312 162° South 416 479 15,600 1,594 Climbing FlightAware ADS-B
Tue 21:52:44 32.0039 -96.7085 162° South 422 486 16,400 1,425 Climbing FlightAware ADS-B
Tue 21:53:32 31.9145 -96.6746 162° South 432 497 17,500 1,271 Climbing FlightAware ADS-B
Tue 21:54:09 31.8460 -96.6480 162° South 441 507 18,200 1,250 Climbing FlightAware ADS-B
Tue 21:54:20 31.8212 -96.6379 161° South 440 506 18,500 1,286 Climbing FlightAware ADS-B
Tue 21:54:51 31.7610 -96.6128 160° South 453 521 19,100 1,292 Climbing FlightAware ADS-B
Tue 21:55:25 31.6928 -96.5847 161° South 457 526 19,900 1,385 Climbing FlightAware ADS-B
Tue 21:55:56 31.6308 -96.5594 161° South 463 533 20,600 1,313 Climbing FlightAware ADS-B
Tue 21:56:29 31.5644 -96.5324 161° South 467 537 21,300 1,313 Climbing FlightAware ADS-B
Tue 21:57:00 31.4994 -96.5062 161° South 470 541 22,000 1,333 Climbing FlightAware ADS-B
Tue 21:57:32 31.4339 -96.4818 162° South 472 543 22,700 1,171 Climbing FlightAware ADS-B
Tue 21:59:03 31.2416 -96.4082 158° South 483 556 24,400 1,096 Climbing FlightAware ADS-B
Tue 21:59:16 31.2166 -96.3930 153° Southeast 484 557 24,600 938 Climbing FlightAware ADS-B
Tue 21:59:35 31.1819 -96.3638 142° Southeast 485 558 24,900 960 Climbing FlightAware ADS-B
Tue 22:00:06 31.1324 -96.3077 136° Southeast 490 564 25,400 913 Climbing FlightAware ADS-B
Tue 22:01:07 31.0337 -96.1915 135° Southeast 496 571 26,300 913 Climbing FlightAware ADS-B
Tue 22:01:38 30.9841 -96.1334 135° Southeast 499 574 26,800 878 Climbing FlightAware ADS-B
Tue 22:03:10 30.8321 -95.9573 135° Southeast 508 585 28,100 836 Climbing FlightAware ADS-B
Tue 22:03:40 30.7819 -95.8995 135° Southeast 510 587 28,500 800 Climbing FlightAware ADS-B
Tue 22:04:10 30.7312 -95.8412 135° Southeast 512 589 28,900 800 Climbing FlightAware ADS-B
Tue 22:04:40 30.6802 -95.7825 135° Southeast 512 589 29,300 766 Climbing FlightAware ADS-B
Tue 22:05:44 30.5717 -95.6579 135° Southeast 515 593 30,100 947 Climbing FlightAware ADS-B
Tue 22:06:15 30.5203 -95.5990 135° Southeast 510 587 30,800 1,180 Climbing FlightAware ADS-B
Tue 22:06:45 30.4696 -95.5410 135° Southeast 508 585 31,300 900 Climbing FlightAware ADS-B
Tue 22:07:15 30.4191 -95.4833 135° Southeast 508 585 31,700 780 Climbing FlightAware ADS-B
Tue 22:08:48 30.2641 -95.3067 135° Southeast 506 582 32,900 355 Climbing FlightAware ADS-B
Tue 22:10:55 30.0390 -95.0585 138° Southeast 505 581 33,000 38 Climbing FlightAware ADS-B
Tue 22:11:26 30.0014 -95.0096 132° Southeast 506 582 33,000  Level FlightAware ADS-B
Tue 22:11:56 29.9507 -94.9523 136° Southeast 506 582 33,000  Level FlightAware ADS-B
Tue 22:12:26 29.9005 -94.8959 136° Southeast 505 581 33,000  Level FlightAware ADS-B
Tue 22:12:56 29.8500 -94.8392 136° Southeast 505 581 33,000  Level FlightAware ADS-B
Tue 22:13:57 29.7483 -94.7253 136° Southeast 504 580 33,000  Level FlightAware ADS-B
Tue 22:14:28 29.6970 -94.6679 136° Southeast 505 581 33,000  Level FlightAware ADS-B
Tue 22:15:59 29.5443 -94.4978 136° Southeast 504 580 33,000  Level FlightAware ADS-B
Tue 22:16:29 29.4941 -94.4420 136° Southeast 504 580 33,000  Level FlightAware ADS-B
Tue 22:18:01 29.3398 -94.2710 136° Southeast 504 580 33,000  Level FlightAware ADS-B
Tue 22:18:31 29.2894 -94.2153 136° Southeast 503 579 33,000  Level FlightAware ADS-B
Tue 22:19:02 29.2383 -94.1590 136° Southeast 504 580 33,000  Level FlightAware ADS-B
Tue 22:19:33 29.1858 -94.1012 136° Southeast 503 579 33,000  Level FlightAware ADS-B
Tue 22:20:55 29.0553 -93.9561 136° Southeast 504 580 33,000  Level Houston Center
Tue 22:21:56 28.9536 -93.8467 137° Southeast 502 578 33,000  Level Houston Center
Tue 22:22:57 28.8531 -93.7369 136° Southeast 501 577 33,000  Level Houston Center
Tue 22:23:59 28.7522 -93.6264 136° Southeast 502 578 33,000 -49 Level Houston Center
Tue 22:25:00 28.6594 -93.5258 136° Southeast 500 575 32,900  Descending Houston Center
Tue 22:26:01 28.5517 -93.4081 136° Southeast 499 574 33,000 49 Climbing Houston Center
Tue 22:27:02 28.4506 -93.2983 136° Southeast 501 577 33,000  Level Houston Center
Tue 22:28:03 28.3375 -93.1789 137° Southeast 499 574 33,000  Level Houston Center
Tue 22:29:04 28.2375 -93.0686 136° Southeast 501 577 33,000 -49 Level Houston Center
Tue 22:30:05 28.1367 -92.9628 137° Southeast 497 572 32,900  Descending Houston Center
Tue 22:31:06 28.0375 -92.8569 137° Southeast 493 567 33,000 49 Climbing Houston Center
Tue 22:32:07 27.9369 -92.7517 137° Southeast 493 567 33,000  Level Houston Center
Tue 22:33:08 27.8369 -92.6428 136° Southeast 497 572 33,000  Level Houston Center
Tue 22:34:10 27.7358 -92.5397 138° Southeast 492 566 33,000 -49 Level Houston Center
Tue 22:35:11 27.6356 -92.4317 136° Southeast 497 572 32,900 -49 Descending Houston Center
Tue 22:36:12 27.5342 -92.3247 137° Southeast 499 574 32,900 49 Level Houston Center
Tue 22:37:13 27.4136 -92.1992 137° Southeast 493 567 33,000  Climbing Houston Center
Tue 22:38:14 27.3128 -92.0947 137° Southeast 494 568 32,900 -49 Descending Houston Center
Tue 22:39:15 27.2125 -91.9889 137° Southeast 494 568 32,900 49 Level Houston Center
Tue 22:40:16 27.1044 -91.8908 141° Southeast 498 573 33,000 49 Climbing Houston Center
Tue 22:41:17 26.9911 -91.7997 144° Southeast 500 575 33,000  Level Houston Center
Tue 22:43:00 26.8076 -91.6512 144° Southeast  Level FlightAware Approximate
Tue 22:50:00 26.0564 -91.0522 145° Southeast  Level FlightAware Approximate
Tue 22:51:00 25.9487 -90.9677 145° Southeast  Level FlightAware Approximate
Tue 22:52:00 25.8408 -90.8833 145° Southeast  Level FlightAware Approximate
Tue 22:53:00 25.7330 -90.7991 145° Southeast  Level FlightAware Approximate
Tue 22:54:00 25.6250 -90.7151 145° Southeast  Level FlightAware Approximate
Tue 22:55:00 25.5170 -90.6312 145° Southeast  Level FlightAware Approximate
Tue 22:56:00 25.4090 -90.5474 145° Southeast  Level FlightAware Approximate
Tue 22:57:00 25.3009 -90.4638 145° Southeast  Level FlightAware Approximate
Tue 22:58:00 25.1928 -90.3804 145° Southeast  Level FlightAware Approximate
Tue 22:59:00 25.0847 -90.2971 145° Southeast  Level FlightAware Approximate
Tue 23:00:00 24.9764 -90.2139 145° Southeast  Level FlightAware Approximate
Tue 23:01:00 24.8682 -90.1309 145° Southeast  Level FlightAware Approximate
Tue 23:02:00 24.7599 -90.0481 145° Southeast  Level FlightAware Approximate
Tue 23:03:00 24.6515 -89.9654 145° Southeast  Level FlightAware Approximate
Tue 23:04:00 24.5431 -89.8828 145° Southeast  Level FlightAware Approximate
Tue 23:05:00 24.4360 -89.7986 146° Southeast  Level FlightAware Approximate
Tue 23:06:00 24.3263 -89.7183 146° Southeast  Level FlightAware Approximate
Tue 23:07:00 24.2166 -89.6381 146° Southeast  Level FlightAware Approximate
Tue 23:08:00 24.1068 -89.5580 146° Southeast  Level FlightAware Approximate
Tue 23:09:00 23.9981 -89.4763 145° Southeast  Level FlightAware Approximate
Tue 23:10:00 23.8906 -89.3927 145° Southeast  Level FlightAware Approximate
Tue 23:10:14 23.7510 -89.2870 145° Southeast 488 562 33,000  Level FlightAware ADS-B
Tue 23:10:57 23.6840 -89.2350 145° Southeast 489 563 33,000  Level FlightAware ADS-B
Tue 23:11:35 23.6240 -89.1900 146° Southeast 489 563 33,000  Level FlightAware ADS-B
Tue 23:12:11 23.5670 -89.1460 145° Southeast 489 563 33,000  Level FlightAware ADS-B
Tue 23:12:53 23.4550 -89.0650 146° Southeast 490 564 33,000  Level FlightAware ADS-B
Tue 23:13:40 23.3710 -89.0020 145° Southeast 491 565 33,000  Level FlightAware ADS-B
Tue 23:14:32 23.2750 -88.9300 145° Southeast 492 566 33,000  Level FlightAware ADS-B
Tue 23:15:11 23.1930 -88.8700 146° Southeast 494 568 33,000  Level FlightAware ADS-B
Tue 23:16:05 23.0890 -88.7920 145° Southeast 493 567 33,000  Level FlightAware ADS-B
Tue 23:16:47 23.0140 -88.7360 145° Southeast 493 567 33,000  Level FlightAware ADS-B
Tue 23:17:31 22.9290 -88.6740 146° Southeast 494 568 33,000  Level FlightAware ADS-B
Tue 23:18:33 22.8110 -88.5860 145° Southeast 494 568 33,000  Level FlightAware ADS-B
Tue 23:19:17 22.7280 -88.5250 146° Southeast 494 568 33,000  Level FlightAware ADS-B
Tue 23:19:57 22.6510 -88.4690 146° Southeast 495 570 33,000  Level FlightAware ADS-B
Tue 23:20:33 22.5850 -88.4150 143° Southeast 495 570 33,000  Level FlightAware ADS-B
Tue 23:21:17 22.5120 -88.3430 138° Southeast 495 570 33,000  Level FlightAware ADS-B
Tue 23:22:14 22.4280 -88.2560 136° Southeast 496 571 33,000  Level FlightAware ADS-B
Tue 23:22:50 22.3780 -88.2030 136° Southeast 496 571 33,000  Level FlightAware ADS-B
Tue 23:24:03 22.2750 -88.0960 136° Southeast 496 571 33,000  Level FlightAware ADS-B
Tue 23:24:41 22.1710 -87.9970 139° Southeast 497 572 33,000  Level FlightAware ADS-B
Tue 23:25:21 22.1220 -87.9460 136° Southeast 497 572 33,000  Level FlightAware ADS-B
Tue 23:26:02 22.0360 -87.8600 137° Southeast 498 573 33,000  Level FlightAware ADS-B
Tue 23:26:50 21.9640 -87.7880 137° Southeast 496 571 33,000  Level FlightAware ADS-B
Tue 23:27:33 21.8890 -87.7120 137° Southeast 495 570 33,000  Level FlightAware ADS-B
Tue 23:28:07 21.8270 -87.6500 137° Southeast 496 571 33,000  Level FlightAware ADS-B
Tue 23:28:55 21.7490 -87.5730 137° Southeast 496 571 33,000  Level FlightAware ADS-B
Tue 23:29:42 21.6670 -87.4920 137° Southeast 496 571 33,000  Level FlightAware ADS-B
Tue 23:30:28 21.5850 -87.4100 137° Southeast 497 572 33,000  Level FlightAware ADS-B
Tue 23:31:07 21.5190 -87.3450 137° Southeast 497 572 33,000  Level FlightAware ADS-B
Tue 23:31:52 21.4420 -87.2690 137° Southeast 496 571 33,000  Level FlightAware ADS-B
Tue 23:32:34 21.3730 -87.2000 137° Southeast 496 571 33,000  Level FlightAware ADS-B
Tue 23:33:14 21.3030 -87.1320 138° Southeast 496 571 33,000  Level FlightAware ADS-B
Tue 23:34:00 21.2260 -87.0560 137° Southeast 498 573 33,000  Level FlightAware ADS-B
Tue 23:34:32 21.1710 -87.0020 138° Southeast 498 573 33,000  Level FlightAware ADS-B
Tue 23:35:16 21.0960 -86.9290 138° Southeast 498 573 33,000  Level FlightAware ADS-B
Tue 23:35:56 21.0290 -86.8620 137° Southeast 499 574 33,000  Level FlightAware ADS-B
Tue 23:36:36 20.9590 -86.7950 138° Southeast 499 574 33,000  Level FlightAware ADS-B
Tue 23:37:21 20.8840 -86.7220 138° Southeast 499 574 33,000  Level FlightAware ADS-B
Tue 23:38:04 20.8090 -86.6490 138° Southeast 500 575 33,000  Level FlightAware ADS-B
Tue 23:38:44 20.7430 -86.5850 138° Southeast 500 575 33,000  Level FlightAware ADS-B
Tue 23:39:28 20.6650 -86.5090 138° Southeast 499 574 33,000 143 Level FlightAware ADS-B
Tue 23:40:08 20.5990 -86.4460 138° Southeast 499 574 33,200 643 Climbing FlightAware ADS-B
Tue 23:40:52 20.5220 -86.3720 138° Southeast 496 571 33,900 488 Climbing FlightAware ADS-B
Tue 23:41:34 20.4630 -86.3130 137° Southeast 496 571 33,900 805 Level FlightAware ADS-B
Tue 23:42:14 20.3850 -86.2390 138° Southeast 492 566 35,000 733 Climbing FlightAware ADS-B
Tue 23:43:04 20.3070 -86.1630 138° Southeast 492 566 35,000  Level FlightAware ADS-B
Tue 23:43:54 20.2130 -86.0740 138° Southeast 494 568 35,000  Level FlightAware ADS-B
Tue 23:44:34 20.1430 -86.0070 138° Southeast 494 568 35,000  Level FlightAware ADS-B
Tue 23:45:14 20.0760 -85.9430 138° Southeast 494 568 35,000  Level FlightAware ADS-B
Tue 23:45:58 20.0010 -85.8710 138° Southeast 496 571 35,000  Level FlightAware ADS-B
Tue 23:46:35 19.9380 -85.8120 139° Southeast 496 571 35,000  Level FlightAware ADS-B
Tue 23:47:14 19.8710 -85.7490 139° Southeast 497 572 35,000  Level FlightAware ADS-B
Tue 23:47:58 19.7950 -85.6770 138° Southeast 497 572 35,000  Level FlightAware ADS-B
Tue 23:48:34 19.7330 -85.6190 139° Southeast 497 572 35,000  Level FlightAware ADS-B
Tue 23:49:30 19.6360 -85.5280 139° Southeast 500 575 35,000  Level FlightAware ADS-B
Tue 23:50:10 19.5680 -85.4640 138° Southeast 500 575 35,000  Level FlightAware ADS-B
Tue 23:50:46 19.5030 -85.4040 139° Southeast 500 575 35,000  Level FlightAware ADS-B
Tue 23:51:30 19.4280 -85.3330 138° Southeast 501 577 35,000  Level FlightAware ADS-B
Tue 23:52:10 19.3580 -85.2680 139° Southeast 502 578 35,000  Level FlightAware ADS-B
Tue 23:53:01 19.2800 -85.1940 138° Southeast 502 578 35,000  Level FlightAware ADS-B
Tue 23:53:49 19.1940 -85.1140 139° Southeast 503 579 35,000  Level FlightAware ADS-B
Tue 23:54:25 19.1410 -85.0630 138° Southeast 503 579 35,000  Level FlightAware ADS-B
Tue 23:55:14 19.0690 -84.9950 138° Southeast 503 579 35,000  Level FlightAware ADS-B
Tue 23:55:50 19.0160 -84.9440 138° Southeast 503 579 35,000  Level FlightAware ADS-B
Tue 23:56:26 18.9630 -84.8940 138° Southeast 503 579 35,000  Level FlightAware ADS-B
Tue 23:57:14 18.8930 -84.8270 138° Southeast 503 579 35,000  Level FlightAware ADS-B
Tue 23:57:50 18.8400 -84.7760 138° Southeast 503 579 35,000  Level FlightAware ADS-B
Tue 23:58:38 18.7690 -84.7090 138° Southeast 503 579 35,000  Level FlightAware ADS-B
Tue 23:59:14 18.7160 -84.6590 138° Southeast 503 579 35,000  Level FlightAware ADS-B
Wed 00:00:02 18.6460 -84.5920 138° Southeast 503 579 35,000  Level FlightAware ADS-B
Wed 00:00:38 18.5930 -84.5420 138° Southeast 503 579 35,000  Level FlightAware ADS-B
Wed 00:01:39 18.5030 -84.4560 138° Southeast 503 579 35,000  Level FlightAware ADS-B
Wed 00:02:15 18.4500 -84.4060 138° Southeast 503 579 35,000  Level FlightAware ADS-B
Wed 00:03:03 18.3800 -84.3390 138° Southeast 503 579 35,000 -26 Level FlightAware ADS-B
Wed 00:05:00 18.1830 -84.1650 140° Southeast  Level FlightAware Approximate
Wed 00:06:00 18.0819 -84.0760 140° Southeast  Level FlightAware Approximate
Wed 00:07:00 17.9807 -83.9870 140° Southeast  Level FlightAware Approximate
Wed 00:08:00 17.8795 -83.8981 140° Southeast  Level FlightAware Approximate
Wed 00:09:00 17.7783 -83.8094 140° Southeast  Level FlightAware Approximate
Wed 00:10:00 17.6770 -83.7207 140° Southeast  Level FlightAware Approximate
Wed 00:11:00 17.5757 -83.6321 140° Southeast  Level FlightAware Approximate
Wed 00:12:00 17.4744 -83.5437 140° Southeast  Level FlightAware Approximate
Wed 00:13:00 17.3730 -83.4553 140° Southeast  Level FlightAware Approximate
Wed 00:14:00 17.2716 -83.3671 140° Southeast  Level FlightAware Approximate
Wed 00:15:00 17.1701 -83.2789 140° Southeast  Level FlightAware Approximate
Wed 00:16:00 17.0686 -83.1908 140° Southeast  Level FlightAware Approximate
Wed 00:17:00 16.9671 -83.1028 140° Southeast  Level FlightAware Approximate
Wed 00:18:00 16.8655 -83.0150 140° Southeast  Level FlightAware Approximate
Wed 00:19:00 16.7639 -82.9272 140° Southeast  Level FlightAware Approximate
Wed 00:20:00 16.6622 -82.8395 140° Southeast  Level FlightAware Approximate
Wed 00:21:00 16.5606 -82.7519 140° Southeast  Level FlightAware Approximate
Wed 00:22:00 16.4588 -82.6644 140° Southeast  Level FlightAware Approximate
Wed 00:23:00 16.3571 -82.5769 140° Southeast  Level FlightAware Approximate
Wed 00:24:00 16.2553 -82.4896 141° Southeast  Level FlightAware Approximate
Wed 00:25:00 16.1535 -82.4024 141° Southeast  Level FlightAware Approximate
Wed 00:26:00 16.0516 -82.3152 141° Southeast  Level FlightAware Approximate
Wed 00:27:00 15.9497 -82.2282 141° Southeast  Level FlightAware Approximate
Wed 00:28:00 15.8481 -82.1398 140° Southeast  Level FlightAware Approximate
Wed 00:29:00 15.7473 -82.0514 140° Southeast  Level FlightAware Approximate
Wed 00:30:00 15.6465 -81.9632 140° Southeast  Level FlightAware Approximate
Wed 00:31:00 15.5456 -81.8750 140° Southeast  Level FlightAware Approximate
Wed 00:32:00 15.4449 -81.7870 140° Southeast  Level FlightAware Approximate
Wed 00:33:00 15.3441 -81.6992 140° Southeast  Level FlightAware Approximate
Wed 00:34:00 15.2433 -81.6114 140° Southeast  Level FlightAware Approximate
Wed 00:35:00 15.1425 -81.5238 140° Southeast  Level FlightAware Approximate
Wed 00:36:00 15.0417 -81.4361 140° Southeast  Level FlightAware Approximate
Wed 00:37:00 14.9405 -81.3489 140° Southeast  Level FlightAware Approximate
Wed 00:38:00 14.8392 -81.2620 140° Southeast  Level FlightAware Approximate
Wed 00:39:00 14.7379 -81.1751 140° Southeast  Level FlightAware Approximate
Wed 00:40:00 14.6365 -81.0883 140° Southeast  Level FlightAware Approximate
Wed 00:41:00 14.5351 -81.0016 140° Southeast  Level FlightAware Approximate
Wed 00:42:00 14.4336 -80.9150 140° Southeast  Level FlightAware Approximate
Wed 00:43:00 14.3321 -80.8285 140° Southeast  Level FlightAware Approximate
Wed 00:44:00 14.2306 -80.7420 140° Southeast  Level FlightAware Approximate
Wed 00:45:00 14.1291 -80.6556 140° Southeast  Level FlightAware Approximate
Wed 00:46:00 14.0275 -80.5693 140° Southeast  Level FlightAware Approximate
Wed 00:47:00 13.9259 -80.4831 141° Southeast  Level FlightAware Approximate
Wed 00:48:00 13.8243 -80.3969 141° Southeast  Level FlightAware Approximate
Wed 00:49:00 13.7226 -80.3109 141° Southeast  Level FlightAware Approximate
Wed 00:50:00 13.6209 -80.2248 141° Southeast  Level FlightAware Approximate
Wed 00:51:00 13.5192 -80.1389 141° Southeast  Level FlightAware Approximate
Wed 00:52:00 13.4175 -80.0530 141° Southeast  Level FlightAware Approximate
Wed 00:53:00 13.3157 -79.9673 141° Southeast  Level FlightAware Approximate
Wed 00:54:00 13.2139 -79.8815 141° Southeast  Level FlightAware Approximate
Wed 00:55:00 13.1120 -79.7959 141° Southeast  Level FlightAware Approximate
Wed 00:56:00 13.0102 -79.7103 141° Southeast  Level FlightAware Approximate
Wed 00:57:00 12.9083 -79.6248 141° Southeast  Level FlightAware Approximate
Wed 00:58:00 12.8064 -79.5394 141° Southeast  Level FlightAware Approximate
Wed 00:59:00 12.7044 -79.4540 141° Southeast  Level FlightAware Approximate
Wed 01:00:00 12.6024 -79.3687 141° Southeast  Level FlightAware Approximate
Wed 01:01:00 12.5004 -79.2835 141° Southeast  Level FlightAware Approximate
Wed 01:02:00 12.3984 -79.1983 141° Southeast  Level FlightAware Approximate
Wed 01:03:00 12.2963 -79.1133 141° Southeast  Level FlightAware Approximate
Wed 01:04:00 12.1943 -79.0282 141° Southeast  Level FlightAware Approximate
Wed 01:05:00 12.0921 -78.9433 141° Southeast  Level FlightAware Approximate
Wed 01:06:00 11.9900 -78.8584 141° Southeast  Level FlightAware Approximate
Wed 01:07:00 11.8878 -78.7735 141° Southeast  Level FlightAware Approximate
Wed 01:08:00 11.7857 -78.6888 141° Southeast  Level FlightAware Approximate
Wed 01:09:00 11.6834 -78.6041 141° Southeast  Level FlightAware Approximate
Wed 01:10:00 11.5812 -78.5194 141° Southeast  Level FlightAware Approximate
Wed 01:11:00 11.4789 -78.4348 141° Southeast  Level FlightAware Approximate
Wed 01:12:00 11.3767 -78.3503 141° Southeast  Level FlightAware Approximate
Wed 01:13:00 11.2744 -78.2659 141° Southeast  Level FlightAware Approximate
Wed 01:14:00 11.1720 -78.1815 141° Southeast  Level FlightAware Approximate
Wed 01:15:00 11.0697 -78.0971 141° Southeast  Level FlightAware Approximate
Wed 01:16:00 10.9673 -78.0128 141° Southeast  Level FlightAware Approximate
Wed 01:17:00 10.8649 -77.9286 141° Southeast  Level FlightAware Approximate
Wed 01:18:00 10.7626 -77.8446 141° Southeast  Level FlightAware Approximate
Wed 01:19:00 10.6604 -77.7606 141° Southeast  Level FlightAware Approximate
Wed 01:19:43 10.3480 -76.8480 141° Southeast 489 563 33,000  Level FlightAware ADS-B
Wed 01:20:00 10.5581 -77.6767 141° Southeast  Level FlightAware Approximate
Wed 01:20:18 10.2940 -76.7980 138° Southeast 488 562 33,000  Level FlightAware ADS-B
Wed 01:20:58 10.2270 -76.7360 138° Southeast 488 562 33,000  Level FlightAware ADS-B
Wed 01:21:38 10.1630 -76.6760 137° Southeast 486 559 33,000  Level FlightAware ADS-B
Wed 01:22:42 10.0600 -76.5800 137° Southeast 483 556 33,000  Level FlightAware ADS-B
Wed 01:23:18 9.9900 -76.5160 138° Southeast 482 555 33,000  Level FlightAware ADS-B
Wed 01:24:19 9.8980 -76.4300 137° Southeast 482 555 33,000  Level FlightAware ADS-B
Wed 01:24:55 9.8480 -76.3830 137° Southeast 482 555 33,000  Level FlightAware ADS-B
Wed 01:25:43 9.7530 -76.2970 138° Southeast 481 554 33,000  Level FlightAware ADS-B
Wed 01:26:28 9.6780 -76.2270 137° Southeast 481 554 33,000  Level FlightAware ADS-B
Wed 01:27:08 9.6190 -76.1730 138° Southeast 480 552 33,000  Level FlightAware ADS-B
Wed 01:27:43 9.5540 -76.1130 138° Southeast 480 552 33,000  Level FlightAware ADS-B
Wed 01:28:28 9.4830 -76.0470 137° Southeast 479 551 33,000  Level FlightAware ADS-B
Wed 01:29:08 9.4170 -75.9870 138° Southeast 478 550 33,000  Level FlightAware ADS-B
Wed 01:29:48 9.3510 -75.9260 138° Southeast 480 552 33,000  Level FlightAware ADS-B
Wed 01:30:33 9.2760 -75.8570 138° Southeast 480 552 33,000  Level FlightAware ADS-B
Wed 01:31:13 9.2150 -75.8000 137° Southeast 480 552 33,000  Level FlightAware ADS-B
Wed 01:31:53 9.1590 -75.7490 138° Southeast 480 552 33,000  Level FlightAware ADS-B
Wed 01:32:33 9.0800 -75.6760 138° Southeast 481 554 33,000  Level FlightAware ADS-B
Wed 01:33:18 9.0060 -75.6080 138° Southeast 479 551 33,000  Level FlightAware ADS-B
Wed 01:34:03 8.9330 -75.5410 138° Southeast 479 551 33,000  Level FlightAware ADS-B
Wed 01:34:43 8.8770 -75.4900 138° Southeast 479 551 33,000  Level FlightAware ADS-B
Wed 01:35:28 8.7900 -75.4100 138° Southeast 478 550 33,000  Level FlightAware ADS-B
Wed 01:36:08 8.7240 -75.3500 138° Southeast 477 549 33,000  Level FlightAware ADS-B
Wed 01:36:53 8.6540 -75.2860 138° Southeast 476 548 33,000  Level FlightAware ADS-B
Wed 01:37:28 8.5940 -75.2310 138° Southeast 475 547 33,000  Level FlightAware ADS-B
Wed 01:38:28 8.5010 -75.1460 138° Southeast 474 545 33,000  Level FlightAware ADS-B
Wed 01:39:08 8.4350 -75.0850 138° Southeast 472 543 33,000  Level FlightAware ADS-B
Wed 01:39:48 8.3700 -75.0260 138° Southeast 472 543 33,000  Level FlightAware ADS-B
Wed 01:40:28 8.3020 -74.9640 138° Southeast 472 543 33,000  Level FlightAware ADS-B
Wed 01:41:13 8.2290 -74.8970 138° Southeast 472 543 33,000  Level FlightAware ADS-B
Wed 01:41:43 8.1810 -74.8530 138° Southeast 470 541 33,000  Level FlightAware ADS-B
Wed 01:42:28 8.1100 -74.7880 138° Southeast 470 541 33,000  Level FlightAware ADS-B
Wed 01:43:08 8.0440 -74.7280 138° Southeast 471 542 33,000  Level FlightAware ADS-B
Wed 01:43:53 7.9700 -74.6610 138° Southeast 469 540 33,000  Level FlightAware ADS-B
Wed 01:44:33 7.9060 -74.6030 138° Southeast 467 537 33,000  Level FlightAware ADS-B
Wed 01:45:13 7.8420 -74.5440 138° Southeast 467 537 33,000 282 Level FlightAware ADS-B
Wed 01:45:58 7.7680 -74.4770 138° Southeast 472 543 33,400 750 Climbing FlightAware ADS-B
Wed 01:46:33 7.7140 -74.4270 137° Southeast 472 543 34,000 1,120 Climbing FlightAware ADS-B
Wed 01:47:13 7.6480 -74.3680 138° Southeast 466 536 34,800 1,125 Climbing FlightAware ADS-B
Wed 01:47:53 7.5840 -74.3100 138° Southeast 463 533 35,500 825 Climbing FlightAware ADS-B
Wed 01:48:33 7.5200 -74.2510 138° Southeast 464 534 35,900 675 Climbing FlightAware ADS-B
Wed 01:49:13 7.4560 -74.1930 138° Southeast 463 533 36,400 706 Climbing FlightAware ADS-B
Wed 01:49:58 7.3850 -74.1280 138° Southeast 463 533 36,900 424 Climbing FlightAware ADS-B
Wed 01:50:38 7.3200 -74.0700 138° Southeast 468 539 37,000 73 Climbing FlightAware ADS-B
Wed 01:51:20 7.2630 -74.0180 138° Southeast 467 537 37,000  Level FlightAware ADS-B
Wed 01:52:03 7.1850 -73.9470 138° Southeast 464 534 37,000  Level FlightAware ADS-B
Wed 01:52:58 7.0970 -73.8680 138° Southeast 462 532 37,000  Level FlightAware ADS-B
Wed 01:53:48 7.0200 -73.8030 140° Southeast 462 532 37,000  Level FlightAware ADS-B
Wed 01:54:28 6.9400 -73.7570 150° Southeast 465 535 37,000  Level FlightAware ADS-B
Wed 01:55:08 6.8670 -73.7170 151° Southeast 466 536 37,000  Level FlightAware ADS-B
Wed 01:55:43 6.7950 -73.6790 152° Southeast 464 534 37,000  Level FlightAware ADS-B
Wed 01:56:30 6.7070 -73.6310 152° Southeast 462 532 37,000  Level FlightAware ADS-B
Wed 01:57:10 6.6300 -73.5900 152° Southeast 463 533 37,000  Level FlightAware ADS-B
Wed 01:57:54 6.5480 -73.5450 151° Southeast 461 531 37,000  Level FlightAware ADS-B
Wed 01:58:34 6.4720 -73.5040 152° Southeast 459 528 37,000  Level FlightAware ADS-B
Wed 01:59:16 6.3930 -73.4610 152° Southeast 458 527 37,000  Level FlightAware ADS-B
Wed 01:59:58 6.3150 -73.4200 152° Southeast 456 525 37,000  Level FlightAware ADS-B
Wed 02:00:34 6.2460 -73.3830 152° Southeast 456 525 37,000  Level FlightAware ADS-B
Wed 02:01:14 6.1720 -73.3430 152° Southeast 458 527 37,000  Level FlightAware ADS-B
Wed 02:02:12 6.0740 -73.2880 151° Southeast 460 529 37,000  Level FlightAware ADS-B
Wed 02:02:48 6.0170 -73.2570 152° Southeast 460 529 37,000  Level FlightAware ADS-B
Wed 02:03:24 5.9600 -73.2250 151° Southeast 460 529 37,000  Level FlightAware ADS-B
Wed 02:04:12 5.8840 -73.1830 151° Southeast 460 529 37,000  Level FlightAware ADS-B
Wed 02:04:48 5.8270 -73.1510 151° Southeast 460 529 37,000  Level FlightAware ADS-B
Wed 02:05:36 5.7510 -73.1090 151° Southeast 460 529 37,000  Level FlightAware ADS-B
Wed 02:06:18 5.6020 -73.0350 154° Southeast 459 528 37,000  Level FlightAware ADS-B
Wed 02:06:58 5.5260 -72.9940 152° Southeast 459 528 37,000  Level FlightAware ADS-B
Wed 02:07:34 5.4570 -72.9570 152° Southeast 459 528 37,000  Level FlightAware ADS-B
Wed 02:08:14 5.3840 -72.9180 152° Southeast 459 528 37,000  Level FlightAware ADS-B
Wed 02:08:58 5.3010 -72.8730 152° Southeast 460 529 37,000  Level FlightAware ADS-B
Wed 02:09:35 5.2310 -72.8360 152° Southeast 461 531 37,000  Level FlightAware ADS-B
Wed 02:10:14 5.1560 -72.7950 151° Southeast 462 532 37,000  Level FlightAware ADS-B
Wed 02:10:54 5.0820 -72.7550 152° Southeast 463 533 37,000  Level FlightAware ADS-B
Wed 02:11:33 5.0200 -72.7210 151° Southeast 463 533 37,000  Level FlightAware ADS-B
Wed 02:12:19 4.9460 -72.6800 151° Southeast 463 533 37,000  Level FlightAware ADS-B
Wed 02:13:19 4.8510 -72.6270 151° Southeast 463 533 37,000  Level FlightAware ADS-B
Wed 02:13:55 4.7940 -72.5950 151° Southeast 463 533 37,000  Level FlightAware ADS-B
Wed 02:14:31 4.7360 -72.5630 151° Southeast 463 533 37,000  Level FlightAware ADS-B
Wed 02:15:19 4.6600 -72.5210 151° Southeast 463 533 37,000  Level FlightAware ADS-B
Wed 02:15:55 4.6020 -72.4890 151° Southeast 463 533 37,000  Level FlightAware ADS-B
Wed 02:16:32 4.5440 -72.4560 150° Southeast 463 533 37,000  Level FlightAware ADS-B
Wed 02:17:08 4.4860 -72.4240 151° Southeast 463 533 37,000  Level FlightAware ADS-B
Wed 02:17:56 4.4100 -72.3820 151° Southeast 463 533 37,000  Level FlightAware ADS-B
Wed 02:18:32 4.3520 -72.3500 151° Southeast 463 533 37,000  Level FlightAware ADS-B
Wed 02:19:21 4.2740 -72.3060 151° Southeast 463 533 37,000  Level FlightAware ADS-B
Wed 02:19:58 4.2150 -72.2740 152° Southeast 463 533 37,000  Level FlightAware ADS-B
Wed 02:20:46 4.1390 -72.2310 151° Southeast 463 533 37,000 Level FlightAware ADS-B
Wed 02:23:00 3.9188 -72.0381 139° Southeast  Level Estimated
Wed 02:24:00 3.8202 -71.9518 139° Southeast  Level Estimated
Wed 02:25:00 3.7216 -71.8655 139° Southeast  Level Estimated
Wed 02:26:00 3.6229 -71.7792 139° Southeast  Level Estimated
Wed 02:27:00 3.5243 -71.6929 139° Southeast  Level Estimated
Wed 02:28:00 3.4257 -71.6067 139° Southeast  Level Estimated
Wed 02:29:00 3.3270 -71.5204 139° Southeast  Level Estimated
Wed 02:30:00 3.2284 -71.4342 139° Southeast  Level Estimated
Wed 02:31:00 3.1297 -71.3480 139° Southeast  Level Estimated
Wed 02:32:00 3.0310 -71.2618 139° Southeast  Level Estimated
Wed 02:33:00 2.9323 -71.1756 139° Southeast  Level Estimated
Wed 02:34:00 2.8337 -71.0895 139° Southeast  Level Estimated
Wed 02:35:00 2.7350 -71.0033 139° Southeast  Level Estimated
Wed 02:36:00 2.6363 -70.9172 139° Southeast  Level Estimated
Wed 02:37:00 2.5376 -70.8311 139° Southeast  Level Estimated
Wed 02:38:00 2.4388 -70.7450 139° Southeast  Level Estimated
Wed 02:39:00 2.3401 -70.6589 139° Southeast  Level Estimated
Wed 02:40:00 2.2414 -70.5728 139° Southeast  Level Estimated
Wed 02:41:00 2.1427 -70.4867 139° Southeast  Level Estimated
Wed 02:42:00 2.0440 -70.4007 139° Southeast  Level Estimated
Wed 02:43:00 1.9452 -70.3147 139° Southeast  Level Estimated
Wed 02:44:00 1.8465 -70.2286 139° Southeast  Level Estimated
Wed 02:45:00 1.7477 -70.1426 139° Southeast  Level Estimated
Wed 02:46:00 1.6490 -70.0566 139° Southeast  Level Estimated
Wed 02:47:00 1.5502 -69.9706 139° Southeast  Level Estimated
Wed 02:48:00 1.4515 -69.8846 139° Southeast  Level Estimated
Wed 02:49:00 1.3527 -69.7986 139° Southeast  Level Estimated
Wed 02:50:00 1.2540 -69.7126 139° Southeast  Level Estimated
Wed 02:51:00 1.1552 -69.6266 139° Southeast  Level Estimated
Wed 02:52:00 1.0564 -69.5407 139° Southeast  Level Estimated
Wed 02:53:00 0.9577 -69.4547 139° Southeast  Level Estimated
Wed 02:54:00 0.8589 -69.3687 139° Southeast  Level Estimated
Wed 02:55:00 0.7601 -69.2828 139° Southeast  Level Estimated
Wed 02:56:00 0.6614 -69.1968 139° Southeast  Level Estimated
Wed 02:57:00 0.5626 -69.1109 139° Southeast  Level Estimated
Wed 02:58:00 0.4638 -69.0249 139° Southeast  Level Estimated
Wed 02:59:00 0.3650 -68.9390 139° Southeast  Level Estimated
Wed 03:00:00 0.2662 -68.8530 139° Southeast  Level Estimated
Wed 03:01:00 0.1674 -68.7671 139° Southeast  Level Estimated
Wed 03:02:00 0.0687 -68.6812 139° Southeast  Level Estimated
Wed 03:03:00 -0.0301 -68.5952 139° Southeast  Level Estimated
Wed 03:04:00 -0.1289 -68.5093 139° Southeast  Level Estimated
Wed 03:05:00 -0.2277 -68.4233 139° Southeast  Level Estimated
Wed 03:06:00 -0.3264 -68.3374 139° Southeast  Level Estimated
Wed 03:07:00 -0.4252 -68.2515 139° Southeast  Level Estimated
Wed 03:08:00 -0.5240 -68.1655 139° Southeast  Level Estimated
Wed 03:09:00 -0.6228 -68.0796 139° Southeast  Level Estimated
Wed 03:10:00 -0.7216 -67.9936 139° Southeast  Level Estimated
Wed 03:11:00 -0.8203 -67.9077 139° Southeast  Level Estimated
Wed 03:12:00 -0.9191 -67.8217 139° Southeast  Level Estimated
Wed 03:13:00 -1.0179 -67.7357 139° Southeast  Level Estimated
Wed 03:14:00 -1.1166 -67.6498 139° Southeast  Level Estimated
Wed 03:15:00 -1.2154 -67.5638 139° Southeast  Level Estimated
Wed 03:16:00 -1.3142 -67.4778 139° Southeast  Level Estimated
Wed 03:17:00 -1.4129 -67.3918 139° Southeast  Level Estimated
Wed 03:18:00 -1.5117 -67.3058 139° Southeast  Level Estimated
Wed 03:19:00 -1.6105 -67.2198 139° Southeast  Level Estimated
Wed 03:20:00 -1.7092 -67.1338 139° Southeast  Level Estimated
Wed 03:21:00 -1.8080 -67.0478 139° Southeast  Level Estimated
Wed 03:22:00 -1.9067 -66.9617 139° Southeast  Level Estimated
Wed 03:23:00 -2.0054 -66.8757 139° Southeast  Level Estimated
Wed 03:24:00 -2.1042 -66.7897 139° Southeast  Level Estimated
Wed 03:25:00 -2.2029 -66.7036 139° Southeast  Level Estimated
Wed 03:26:00 -2.3016 -66.6175 139° Southeast  Level Estimated
Wed 03:27:00 -2.4003 -66.5314 139° Southeast  Level Estimated
Wed 03:28:00 -2.4990 -66.4454 139° Southeast  Level Estimated
Wed 03:29:00 -2.5977 -66.3592 139° Southeast  Level Estimated
Wed 03:30:00 -2.6964 -66.2731 139° Southeast  Level Estimated
Wed 03:31:00 -2.7951 -66.1870 139° Southeast  Level Estimated
Wed 03:32:00 -2.8938 -66.1008 139° Southeast  Level Estimated
Wed 03:33:00 -2.9925 -66.0147 139° Southeast  Level Estimated
Wed 03:34:00 -3.0912 -65.9285 139° Southeast  Level Estimated
Wed 03:35:00 -3.1899 -65.8423 139° Southeast  Level Estimated
Wed 03:36:00 -3.2885 -65.7561 139° Southeast  Level Estimated
Wed 03:37:00 -3.3872 -65.6698 139° Southeast  Level Estimated
Wed 03:38:00 -3.4858 -65.5836 139° Southeast  Level Estimated
Wed 03:39:00 -3.5845 -65.4973 139° Southeast  Level Estimated
Wed 03:40:00 -3.6831 -65.4110 139° Southeast  Level Estimated
Wed 03:41:00 -3.7817 -65.3247 139° Southeast  Level Estimated
Wed 03:42:00 -3.8803 -65.2384 139° Southeast  Level Estimated
Wed 03:43:00 -3.9789 -65.1520 139° Southeast  Level Estimated
Wed 03:44:00 -4.0775 -65.0657 139° Southeast  Level Estimated
Wed 03:45:00 -4.1761 -64.9793 139° Southeast  Level Estimated
Wed 03:46:00 -4.2747 -64.8929 139° Southeast  Level Estimated
Wed 03:47:00 -4.3733 -64.8064 139° Southeast  Level Estimated
Wed 03:48:00 -4.4718 -64.7200 139° Southeast  Level Estimated
Wed 03:49:00 -4.5704 -64.6335 139° Southeast  Level Estimated
Wed 03:50:00 -4.6689 -64.5470 139° Southeast  Level Estimated
Wed 03:51:00 -4.7674 -64.4605 139° Southeast  Level Estimated
Wed 03:52:00 -4.8659 -64.3739 139° Southeast  Level Estimated
Wed 03:53:00 -4.9644 -64.2873 139° Southeast  Level Estimated
Wed 03:54:00 -5.0629 -64.2007 139° Southeast  Level Estimated
Wed 03:55:00 -5.1614 -64.1141 139° Southeast  Level Estimated
Wed 03:56:00 -5.2599 -64.0275 139° Southeast  Level Estimated
Wed 03:57:00 -5.3583 -63.9408 139° Southeast  Level Estimated
Wed 03:58:00 -5.4568 -63.8541 139° Southeast  Level Estimated
Wed 03:59:00 -5.5552 -63.7673 139° Southeast  Level Estimated
Wed 04:00:00 -5.6536 -63.6806 139° Southeast  Level Estimated
Wed 04:01:00 -5.7520 -63.5938 139° Southeast  Level Estimated
Wed 04:02:00 -5.8504 -63.5069 139° Southeast  Level Estimated
Wed 04:03:00 -5.9488 -63.4201 139° Southeast  Level Estimated
Wed 04:04:00 -6.0472 -63.3332 139° Southeast  Level Estimated
Wed 04:05:00 -6.1455 -63.2463 139° Southeast  Level Estimated
Wed 04:06:00 -6.2439 -63.1593 139° Southeast  Level Estimated
Wed 04:07:00 -6.3422 -63.0723 139° Southeast  Level Estimated
Wed 04:08:00 -6.4405 -62.9853 139° Southeast  Level Estimated
Wed 04:09:00 -6.5388 -62.8983 139° Southeast  Level Estimated
Wed 04:10:00 -6.6371 -62.8112 139° Southeast  Level Estimated
Wed 04:11:00 -6.7354 -62.7240 139° Southeast  Level Estimated
Wed 04:12:00 -6.8336 -62.6369 139° Southeast  Level Estimated
Wed 04:13:00 -6.9318 -62.5497 139° Southeast  Level Estimated
Wed 04:14:00 -7.0301 -62.4625 139° Southeast  Level Estimated
Wed 04:15:00 -7.1283 -62.3752 139° Southeast  Level Estimated
Wed 04:16:00 -7.2264 -62.2879 139° Southeast  Level Estimated
Wed 04:17:00 -7.3246 -62.2006 139° Southeast  Level Estimated
Wed 04:18:00 -7.4228 -62.1132 139° Southeast  Level Estimated
Wed 04:19:00 -7.5209 -62.0258 139° Southeast  Level Estimated
Wed 04:20:00 -7.6190 -61.9383 139° Southeast  Level Estimated
Wed 04:21:00 -7.7171 -61.8508 139° Southeast  Level Estimated
Wed 04:22:00 -7.8152 -61.7633 139° Southeast  Level Estimated
Wed 04:23:00 -7.9133 -61.6757 139° Southeast  Level Estimated
Wed 04:24:00 -8.0113 -61.5881 138° Southeast  Level Estimated
Wed 04:25:00 -8.1094 -61.5004 138° Southeast  Level Estimated
Wed 04:26:00 -8.2074 -61.4127 138° Southeast  Level Estimated
Wed 04:27:00 -8.3054 -61.3249 138° Southeast  Level Estimated
Wed 04:28:00 -8.4033 -61.2371 138° Southeast  Level Estimated
Wed 04:29:00 -8.5013 -61.1493 138° Southeast  Level Estimated
Wed 04:30:00 -8.5992 -61.0614 138° Southeast  Level Estimated
Wed 04:31:00 -8.6973 -60.9734 138° Southeast  Level Estimated
Wed 04:32:00 -8.7953 -60.8852 138° Southeast  Level Estimated
Wed 04:33:00 -8.8934 -60.7970 138° Southeast  Level Estimated
Wed 04:34:00 -8.9914 -60.7088 138° Southeast  Level Estimated
Wed 04:35:00 -9.0894 -60.6205 138° Southeast  Level Estimated
Wed 04:36:00 -9.1874 -60.5322 138° Southeast  Level Estimated
Wed 04:37:00 -9.2853 -60.4439 138° Southeast  Level Estimated
Wed 04:38:00 -9.3833 -60.3554 138° Southeast  Level Estimated
Wed 04:39:00 -9.4812 -60.2670 138° Southeast  Level Estimated
Wed 04:40:00 -9.5791 -60.1785 138° Southeast  Level Estimated
Wed 04:41:00 -9.6770 -60.0899 138° Southeast  Level Estimated
Wed 04:42:00 -9.7748 -60.0013 138° Southeast  Level Estimated
Wed 04:43:00 -9.8726 -59.9126 138° Southeast  Level Estimated
Wed 04:44:00 -9.9704 -59.8239 138° Southeast  Level Estimated
Wed 04:45:00 -10.0682 -59.7351 138° Southeast  Level Estimated
Wed 04:46:00 -10.1660 -59.6463 138° Southeast  Level Estimated
Wed 04:47:00 -10.2637 -59.5574 138° Southeast  Level Estimated
Wed 04:48:00 -10.3614 -59.4684 138° Southeast  Level Estimated
Wed 04:49:00 -10.4591 -59.3794 138° Southeast  Level Estimated
Wed 04:50:00 -10.5568 -59.2904 138° Southeast  Level Estimated
Wed 04:51:00 -10.6544 -59.2013 138° Southeast  Level Estimated
Wed 04:52:00 -10.7522 -59.1119 138° Southeast  Level Estimated
Wed 04:53:00 -10.8499 -59.0226 138° Southeast  Level Estimated
Wed 04:54:00 -10.9476 -58.9331 138° Southeast  Level Estimated
Wed 04:55:00 -11.0454 -58.8436 138° Southeast  Level Estimated
Wed 04:56:00 -11.1430 -58.7541 138° Southeast  Level Estimated
Wed 04:57:00 -11.2407 -58.6645 138° Southeast  Level Estimated
Wed 04:58:00 -11.3383 -58.5748 138° Southeast  Level Estimated
Wed 04:59:00 -11.4359 -58.4850 138° Southeast  Level Estimated
Wed 05:00:00 -11.5335 -58.3952 138° Southeast  Level Estimated
Wed 05:01:00 -11.6310 -58.3054 138° Southeast  Level Estimated
Wed 05:02:00 -11.7285 -58.2154 138° Southeast  Level Estimated
Wed 05:03:00 -11.8260 -58.1254 138° Southeast  Level Estimated
Wed 05:04:00 -11.9235 -58.0354 138° Southeast  Level Estimated
Wed 05:05:00 -12.0209 -57.9453 138° Southeast  Level Estimated
Wed 05:06:00 -12.1183 -57.8551 138° Southeast  Level Estimated
Wed 05:07:00 -12.2157 -57.7648 138° Southeast  Level Estimated
Wed 05:08:00 -12.3130 -57.6745 138° Southeast  Level Estimated
Wed 05:09:00 -12.4103 -57.5841 138° Southeast  Level Estimated
Wed 05:10:00 -12.5076 -57.4937 138° Southeast  Level Estimated
Wed 05:11:00 -12.6048 -57.4031 138° Southeast  Level Estimated
Wed 05:12:00 -12.7021 -57.3125 138° Southeast  Level Estimated
Wed 05:13:00 -12.7992 -57.2219 138° Southeast  Level Estimated
Wed 05:14:00 -12.8964 -57.1312 138° Southeast  Level Estimated
Wed 05:15:00 -12.9935 -57.0404 138° Southeast  Level Estimated
Wed 05:16:00 -13.0906 -56.9495 138° Southeast  Level Estimated
Wed 05:17:00 -13.1877 -56.8586 138° Southeast  Level Estimated
Wed 05:18:00 -13.2847 -56.7675 138° Southeast  Level Estimated
Wed 05:19:00 -13.3817 -56.6764 138° Southeast  Level Estimated
Wed 05:20:00 -13.4785 -56.5854 138° Southeast  Level Estimated
Wed 05:21:00 -13.5753 -56.4944 138° Southeast  Level Estimated
Wed 05:22:00 -13.6720 -56.4032 138° Southeast  Level Estimated
Wed 05:23:00 -13.7687 -56.3120 138° Southeast  Level Estimated
Wed 05:24:00 -13.8654 -56.2207 137° Southeast  Level Estimated
Wed 05:25:00 -13.9620 -56.1293 137° Southeast  Level Estimated
Wed 05:26:00 -14.0586 -56.0379 137° Southeast  Level Estimated
Wed 05:27:00 -14.1552 -55.9464 137° Southeast  Level Estimated
Wed 05:28:00 -14.2517 -55.8548 137° Southeast  Level Estimated
Wed 05:29:00 -14.3482 -55.7631 137° Southeast  Level Estimated
Wed 05:30:00 -14.4446 -55.6713 137° Southeast  Level Estimated
Wed 05:31:00 -14.5411 -55.5795 137° Southeast  Level Estimated
Wed 05:32:00 -14.6374 -55.4875 137° Southeast  Level Estimated
Wed 05:33:00 -14.7338 -55.3955 137° Southeast  Level Estimated
Wed 05:34:00 -14.8301 -55.3035 137° Southeast  Level Estimated
Wed 05:35:00 -14.9264 -55.2113 137° Southeast  Level Estimated
Wed 05:36:00 -15.0226 -55.1190 137° Southeast  Level Estimated
Wed 05:37:00 -15.1188 -55.0267 137° Southeast  Level Estimated
Wed 05:38:00 -15.2150 -54.9343 137° Southeast  Level Estimated
Wed 05:39:00 -15.3111 -54.8418 137° Southeast  Level Estimated
Wed 05:40:00 -15.4072 -54.7492 137° Southeast  Level Estimated
Wed 05:41:00 -15.5033 -54.6565 137° Southeast  Level Estimated
Wed 05:42:00 -15.5993 -54.5638 137° Southeast  Level Estimated
Wed 05:43:00 -15.6952 -54.4709 137° Southeast  Level Estimated
Wed 05:44:00 -15.7912 -54.3780 137° Southeast  Level Estimated
Wed 05:45:00 -15.8870 -54.2850 137° Southeast  Level Estimated
Wed 05:46:00 -15.9829 -54.1919 137° Southeast  Level Estimated
Wed 05:47:00 -16.0787 -54.0987 137° Southeast  Level Estimated
Wed 05:48:00 -16.1745 -54.0054 137° Southeast  Level Estimated
Wed 05:49:00 -16.2702 -53.9120 137° Southeast  Level Estimated
Wed 05:50:00 -16.3659 -53.8185 137° Southeast  Level Estimated
Wed 05:51:00 -16.4615 -53.7250 137° Southeast  Level Estimated
Wed 05:52:00 -16.5572 -53.6313 137° Southeast  Level Estimated
Wed 05:53:00 -16.6527 -53.5376 137° Southeast  Level Estimated
Wed 05:54:00 -16.7482 -53.4437 137° Southeast  Level Estimated
Wed 05:55:00 -16.8437 -53.3498 137° Southeast  Level Estimated
Wed 05:56:00 -16.9392 -53.2558 137° Southeast  Level Estimated
Wed 05:57:00 -17.0346 -53.1616 137° Southeast  Level Estimated
Wed 05:58:00 -17.1299 -53.0674 137° Southeast  Level Estimated
Wed 05:59:00 -17.2252 -52.9731 137° Southeast  Level Estimated
Wed 06:00:00 -17.3205 -52.8787 137° Southeast  Level Estimated
Wed 06:01:00 -17.4157 -52.7842 137° Southeast  Level Estimated
Wed 06:02:00 -17.5109 -52.6896 137° Southeast  Level Estimated
Wed 06:03:00 -17.6060 -52.5949 137° Southeast  Level Estimated
Wed 06:04:00 -17.7011 -52.5000 136° Southeast  Level Estimated
Wed 06:05:00 -17.7962 -52.4051 136° Southeast  Level Estimated
Wed 06:06:00 -17.8911 -52.3101 136° Southeast  Level Estimated
Wed 06:07:00 -17.9861 -52.2150 136° Southeast  Level Estimated
Wed 06:08:00 -18.0810 -52.1198 136° Southeast  Level Estimated
Wed 06:09:00 -18.1758 -52.0245 136° Southeast  Level Estimated
Wed 06:10:00 -18.2707 -51.9291 136° Southeast  Level Estimated
Wed 06:11:00 -18.3654 -51.8335 136° Southeast  Level Estimated
Wed 06:12:00 -18.4601 -51.7379 136° Southeast  Level Estimated
Wed 06:13:00 -18.5548 -51.6422 136° Southeast  Level Estimated
Wed 06:14:00 -18.6494 -51.5463 136° Southeast  Level Estimated
Wed 06:15:00 -18.7440 -51.4504 136° Southeast  Level Estimated
Wed 06:16:00 -18.8385 -51.3543 136° Southeast  Level Estimated
Wed 06:17:00 -18.9330 -51.2581 136° Southeast  Level Estimated
Wed 06:17:34 -18.9040 -50.7750 136° Southeast 519 597 39,000  Level FlightAware ADS-B
Wed 06:18:00 -19.0274 -51.1619 136° Southeast  Level Estimated
Wed 06:18:12 -18.9570 -50.7160 134° Southeast 519 597 39,000  Level FlightAware ADS-B
Wed 06:18:59 -19.0470 -50.6200 135° Southeast 521 600 39,000  Level FlightAware ADS-B
Wed 06:19:41 -19.1170 -50.5430 134° Southeast 522 601 39,000  Level FlightAware ADS-B
Wed 06:20:22 -19.1660 -50.4890 134° Southeast 523 602 39,000  Level FlightAware ADS-B
Wed 06:20:48 -19.2280 -50.4220 134° Southeast 524 603 39,000  Level FlightAware ADS-B
Wed 06:21:32 -19.3040 -50.3380 134° Southeast 524 603 39,000  Level FlightAware ADS-B
Wed 06:22:12 -19.3720 -50.2640 134° Southeast 526 605 39,000  Level FlightAware ADS-B
Wed 06:22:32 -19.4070 -50.2250 134° Southeast 526 605 39,000  Level FlightAware ADS-B
Wed 06:23:34 -19.5110 -50.1110 134° Southeast 527 606 39,000  Level FlightAware ADS-B
Wed 06:24:18 -19.5860 -50.0270 133° Southeast 528 608 39,000  Level FlightAware ADS-B
Wed 06:24:58 -19.6500 -49.9570 134° Southeast 528 608 39,000  Level FlightAware ADS-B
Wed 06:25:34 -19.7150 -49.8870 135° Southeast 528 608 39,000  Level FlightAware ADS-B
Wed 06:26:13 -19.7810 -49.8150 134° Southeast 529 609 39,000  Level FlightAware ADS-B
Wed 06:26:58 -19.8550 -49.7330 134° Southeast 529 609 39,000  Level FlightAware ADS-B
Wed 06:27:30 -19.9090 -49.6740 134° Southeast 530 610 39,000  Level FlightAware ADS-B
Wed 06:28:11 -19.9820 -49.5950 135° Southeast 531 611 39,000  Level FlightAware ADS-B
Wed 06:28:55 -20.0600 -49.5170 137° Southeast 527 606 39,000  Level FlightAware ADS-B
Wed 06:29:41 -20.1460 -49.4380 139° Southeast 529 609 39,000  Level FlightAware ADS-B
Wed 06:30:21 -20.2190 -49.3710 139° Southeast 531 611 39,000  Level FlightAware ADS-B
Wed 06:31:01 -20.2940 -49.2990 138° Southeast 532 612 39,000  Level FlightAware ADS-B
Wed 06:31:43 -20.3710 -49.2250 138° Southeast 534 615 39,000  Level FlightAware ADS-B
Wed 06:32:21 -20.4410 -49.1590 139° Southeast 534 615 39,000  Level FlightAware ADS-B
Wed 06:33:03 -20.5190 -49.0840 138° Southeast 535 616 39,000  Level FlightAware ADS-B
Wed 06:33:43 -20.5910 -49.0150 138° Southeast 537 618 39,000  Level FlightAware ADS-B
Wed 06:34:19 -20.6590 -48.9500 138° Southeast 538 619 39,000  Level FlightAware ADS-B
Wed 06:35:07 -20.7460 -48.8660 138° Southeast 538 619 39,000  Level FlightAware ADS-B
Wed 06:35:49 -20.8250 -48.7920 139° Southeast 538 619 39,000  Level FlightAware ADS-B
Wed 06:36:31 -20.9060 -48.7150 138° Southeast 538 619 39,000  Level FlightAware ADS-B
Wed 06:37:15 -20.9880 -48.6370 138° Southeast 539 620 39,000  Level FlightAware ADS-B
Wed 06:37:55 -21.0620 -48.5660 138° Southeast 540 621 39,000  Level FlightAware ADS-B
Wed 06:38:39 -21.1440 -48.4870 138° Southeast 540 621 39,000  Level FlightAware ADS-B
Wed 06:39:16 -21.2130 -48.4220 139° Southeast 541 623 39,000  Level FlightAware ADS-B
Wed 06:39:55 -21.2870 -48.3510 158° South 542 624 39,000 -180 Level FlightAware ADS-B
Wed 06:41:00 -21.4244 -48.3321 158° South  Level FlightAware Approximate
Wed 06:42:03 -21.5220 -48.1250 138° Southeast 540 621 38,500  Level FlightAware ADS-B
Wed 06:42:44 -21.6020 -48.0480 138° Southeast 548 631 37,400 -1,481 Descending FlightAware ADS-B
Wed 06:43:24 -21.6760 -47.9760 138° Southeast 554 638 36,500 -1,421 Descending FlightAware ADS-B
Wed 06:44:00 -21.7460 -47.9090 138° Southeast 560 644 35,600 -2,325 Descending FlightAware ADS-B
Wed 06:44:44 -21.8310 -47.8260 138° Southeast 568 654 33,400 -2,775 Descending FlightAware ADS-B
Wed 06:45:20 -21.9010 -47.7580 138° Southeast 562 647 31,900 -2,211 Descending FlightAware ADS-B
Wed 06:46:00 -21.9790 -47.6820 138° Southeast 553 636 30,600 -1,950 Descending FlightAware ADS-B
Wed 06:46:40 -22.0540 -47.6100 138° Southeast 541 623 29,300 -1,976 Descending FlightAware ADS-B
Wed 06:47:22 -22.1300 -47.5350 138° Southeast 531 611 27,900 -1,929 Descending FlightAware ADS-B
Wed 06:48:04 -22.2080 -47.4590 138° Southeast 521 600 26,600 -1,841 Descending FlightAware ADS-B
Wed 06:48:50 -22.2890 -47.3800 138° Southeast 512 589 25,200 -1,884 Descending FlightAware ADS-B
Wed 06:49:30 -22.3600 -47.3110 138° Southeast 503 579 23,900 -1,786 Descending FlightAware ADS-B
Wed 06:50:14 -22.4340 -47.2380 138° Southeast 489 563 22,700 -1,747 Descending FlightAware ADS-B
Wed 06:50:49 -22.4920 -47.1820 138° Southeast 478 550 21,600 -1,859 Descending FlightAware ADS-B
Wed 06:51:25 -22.5510 -47.1240 138° Southeast 469 540 20,500 -1,857 Descending FlightAware ADS-B
Wed 06:52:13 -22.6390 -47.0720 151° Southeast 435 501 19,000 -1,857 Descending FlightAware ADS-B
Wed 06:52:49 -22.7050 -47.0440 159° South 423 487 17,900 -1,895 Descending FlightAware ADS-B
Wed 06:53:29 -22.7780 -47.0130 159° South 416 479 16,600 -1,829 Descending FlightAware ADS-B
Wed 06:54:11 -22.8520 -46.9820 159° South 408 470 15,400 -1,884 Descending FlightAware ADS-B
Wed 06:54:55 -22.9260 -46.9510 159° South 365 420 13,900 -2,000 Descending FlightAware ADS-B
Wed 06:55:35 -22.9890 -46.9250 159° South 349 402 12,600 -1,929 Descending FlightAware ADS-B
Wed 06:56:19 -23.0530 -46.8980 159° South 330 380 11,200 -1,835 Descending FlightAware ADS-B
Wed 06:57:00 -23.1070 -46.8750 159° South 304 350 10,000 -1,569 Descending FlightAware ADS-B
Wed 06:57:24 -23.1400 -46.8610 159° South 303 349 9,500 -1,250 Descending FlightAware ADS-B
Wed 06:57:48 -23.1720 -46.8480 160° South 298 343 9,000 -1,154 Descending FlightAware ADS-B
Wed 06:58:16 -23.2060 -46.8330 158° South 295 339 8,500 -1,200 Descending FlightAware ADS-B
Wed 06:58:28 -23.2220 -46.8260 158° South 294 338 8,200 -1,091 Descending FlightAware ADS-B
Wed 06:59:00 -23.2630 -46.8090 159° South 283 326 7,700 -750 Descending FlightAware ADS-B
Wed 06:59:24 -23.2920 -46.7970 159° South 268 308 7,500 -500 Descending FlightAware ADS-B
Wed 06:59:48 -23.3170 -46.7860 158° South 253 291 7,300 -600 Descending FlightAware ADS-B
Wed 07:00:14 -23.3440 -46.7750 159° South 234 269 7,000 -750 Descending FlightAware ADS-B
Wed 07:00:28 -23.3590 -46.7690 160° South 231 266 6,800 -714 Descending FlightAware ADS-B
Wed 07:00:56 -23.3840 -46.7520 148° Southeast 229 264 6,500 -857 Descending FlightAware ADS-B
Wed 07:01:24 -23.4060 -46.7310 139° Southeast 229 264 6,000 -964 Descending FlightAware ADS-B
Wed 07:01:52 -23.4290 -46.7100 140° Southeast 217 250 5,600 -900 Descending FlightAware ADS-B
Wed 07:02:04 -23.4380 -46.7010 137° Southeast 218 251 5,400 -1,000 Descending FlightAware ADS-B
Wed 07:02:22 -23.4490 -46.6870 131° Southeast 207 238 5,100 -652 Descending FlightAware ADS-B
Wed 07:02:50 -23.4610 -46.6630 119° Southeast 185 213 4,900 -536 Descending FlightAware ADS-B
Wed 07:03:18 -23.4700 -46.6410 114° Southeast 163 188 4,600 -600 Descending FlightAware ADS-B
Wed 07:03:40 -23.4750 -46.6250 109° East 150 173 4,400 -218 Descending FlightAware ADS-B
Wed 07:04:13 -23.4690 -46.6000 75° East 154 177 4,400 -444 Level FlightAware ADS-B
Wed 07:04:34 -23.4650 -46.5840 75° East 156 180 4,000 -973 Descending FlightAware ADS-B
Wed 07:04:50 -23.4620 -46.5720 75° East 153 176 3,800 -837 Descending FlightAware ADS-B
Wed 07:05:17 -23.4570 -46.5530 74° East 146 168 3,400 -857 Descending FlightAware ADS-B
Wed 07:05:46 -23.4510 -46.5330 72° East 142 163 3,000 -766 Descending FlightAware ADS-B
Wed 07:06:04 -23.4480 -46.5210 75° East 142 163 2,800 -652 Descending FlightAware ADS-B
Wed 07:06:32 -23.4430 -46.5020 74° East 136 157 2,500 -724 Descending FlightAware ADS-B
Wed 07:07:02 -23.4380 -46.4820 75° East 140 161 2,100 -800 Descending FlightAware ADS-B
Wed 07:07:21 -23.4350 -46.4710 73° East 78 90 -6,632 Descending FlightAware ADS-B
Wed 07:07:59 -23.4320 -46.4620 70° East 64 74  Level FlightAware ADS-B

Login

Don't have an account? Register now (free) for customized features, flight alerts, and more!